KATL/ATL METAR and TAF weather

Enter ICAO airport designator
Station Type Date Time Source
KATL METAR 2018/04/21 10:52 UTC NOAA

KATL 211052Z 09006KT 10SM FEW250 08/02 A3031 RMK AO2 SLP264 T00830022


Station Type Date Time Source
KATL Decoded METAR 2018/04/21 10:52 UTC NOAA

HARTSFIELD-JACKSON ATLANTA, GA, United States (KATL) 33-39N 84-26W
Apr 21, 2018 - 06:52 AM EDT / 2018.04.21 1052 UTC
Wind: from the E (090 degrees) at 7 MPH (6 KT):0
Visibility: 10 mile(s):0
Sky conditions: mostly clear
Temperature: 46.9 F (8.3 C)
Dew Point: 36.0 F (2.2 C)
Relative Humidity: 65%
Pressure (altimeter): 30.31 in. Hg (1026 hPa)
ob: KATL 211052Z 09006KT 10SM FEW250 08/02 A3031 RMK AO2 SLP264 T00830022
cycle: 11

Station Type Date Time Source
KATL TAF 2018/04/21 12:39 UTC NOAA

TAF KATL 211136Z 2112/2218 08006KT P6SM SKC
FM211400 11012KT P6SM SKC
FM212300 10011KT P6SM SCT070
FM220400 09010KT P6SM BKN050
FM221000 10012KT P6SM BKN035
FM221500 11012G20KT 5SM -RA BKN020 OVC040


Example: see airport list